Crow Agency, MT

9:53 AM MDT on May 28, 2017 (GMT -0600)
MLBHM8 | | Change Station

Elev 3116 ft 45.57 °N, 107.44 °W | Updated 17 days ago

Mostly Cloudy
Mostly Cloudy
71.0 °F
Feels Like 71.0 °F
N
9.0
Wind Variable Wind from SE
Gusts 16.0 mph

Today
High -- | Low -- °F
--% Chance of Precip.
Yesterday
High -- | Low -- °F
Precip. -- in
Pressure 30.16 in
Visibility 10.0 miles
Clouds Few 7500 ft
Mostly Cloudy 10000 ft
Dew Point 39.0 °F
Humidity 31%
Rainfall in
Snow Depth Not available.
5:26 AM 8:48 PM
Waxing Crescent, 12% visible
METAR KBIL 281453Z 20007KT 10SM FEW075 BKN100 14/07 A3021 RMK AO2 SLP213 VIRGA 60000 T01440072 50016 $
Pressure 30.16 in
Visibility 10.0 miles
Clouds Few 7500 ft
Mostly Cloudy 10000 ft
Dew Point 39.0 °F
Humidity 31%
Rainfall in
Snow Depth Not available.
5:26 AM 8:48 PM
Waxing Crescent, 12% visible
METAR KBIL 281453Z 20007KT 10SM FEW075 BKN100 14/07 A3021 RMK AO2 SLP213 VIRGA 60000 T01440072 50016 $

Get Severe Weather Alerts

Thanks for signing up!

Be on the lookout for a verification email in your inbox.

You'll start receiving the daily forecast at 6 AM.

×

10-Day Weather Forecast

Almanac

Astronomy

May. 28, 2017 Rise Set
Actual Time
Civil Twilight
Nautical Twilight
Astronomical Twilight
Moon
Length of Visible Light
Length of Day
Tomorrow will be .
, % of the Moon is Illuminated

Today's Extremes

State Highs State Lows

Community

WunderPhotos

Category 6

Welcome to Category 6. This is the collective home for Weather Underground's featured writeups by Dr. Jeff Masters (right), Bob Henson (left), Chris Burt, and other regular contributors.

Nearby

Air Quality

  Air Quality AQ Index Pollutant
Not available.

Snow Depth

Station Depth Elevation

Earthquake Activity

City Distance Mag. Time & Date
Minimum magnitude displayed is 2.5.

Coastal Water Temperatures

Place Temperature

Stations

Nearby Weather Stations

Station Location Temp. Windchill Dew Point Humidity Wind Precip. Elev Updated Type
                   

Watches & Warnings

There are currently no watches in effect.